Time;durP1;ratioP1;P1;durP2;ratioP2;P2;SDS_P1;SDS_P2;PMS_P1;PMS_P2;Temp;Humidity;BMP_temperature;BMP_pressure;BME280_temperature;BME280_humidity;BME280_pressure;Samples;Min_cycle;Max_cycle;Signal;HPM_P1;HPM_P2
2022/09/18 00:00:52;;;;;;;;;;;;;;;10.98;74.82;99884.63;1084967;54;19957;-80
2022/09/18 00:01:56;;;;;;;;;;;;;;;11.08;74.60;99880.91;1084759;54;19946;-79
2022/09/18 00:02:57;;;;;;;;;;;;;;;11.01;74.48;99882.50;1085225;54;19958;-79
2022/09/18 00:04:01;;;;;;;;;;;;;;;11.03;74.54;99885.00;1085278;54;19946;-80
2022/09/18 00:05:04;;;;;;;;;;;;;;;11.05;74.28;99886.53;1085348;39;20345;-78
2022/09/18 00:06:09;;;;;;;;;;;;;;;10.99;74.29;99887.16;1085081;54;20496;-78
2022/09/18 00:07:10;;;;;;;;;;;;;;;11.00;74.32;99885.34;1085712;54;20427;-80
2022/09/18 00:08:13;;;;;;;;;;;;;;;10.97;74.39;99886.47;1085397;54;19950;-78
2022/09/18 00:09:15;;;;;;;;;;;;;;;10.95;74.39;99888.47;1085030;54;19946;-79
2022/09/18 00:10:19;;;;;;;;;;;;;;;11.02;74.20;99878.84;1085935;54;19951;-79
2022/09/18 00:11:22;;;;;;;;;;;;;;;11.00;74.24;99886.16;1085893;31;20405;-80
2022/09/18 00:12:25;;;;;;;;;;;;;;;11.00;73.90;99886.16;1086345;54;19935;-81
2022/09/18 00:13:29;;;;;;;;;;;;;;;10.97;73.99;99889.13;1086558;39;20345;-80
2022/09/18 00:14:33;;;;;;;;;;;;;;;11.03;73.90;99882.34;1085788;54;20447;-80
2022/09/18 00:15:35;;;;;;;;;;;;;;;11.11;73.96;99886.94;1085205;54;19950;-80
2022/09/18 00:16:49;;;;;;;;;;;;;;;11.05;73.95;99883.88;1085424;54;20029;-80
2022/09/18 00:17:50;;;;;;;;;;;;;;;10.95;73.68;99883.13;1085877;54;19946;-80
2022/09/18 00:18:54;;;;;;;;;;;;;;;11.08;73.77;99883.56;1085455;54;20046;-80
2022/09/18 00:19:55;;;;;;;;;;;;;;;10.97;74.14;99880.28;1085986;54;19977;-79
2022/09/18 00:21:04;;;;;;;;;;;;;;;10.93;73.92;99880.56;1086374;39;20520;-79
2022/09/18 00:22:05;;;;;;;;;;;;;;;10.88;73.93;99882.00;1086917;39;20372;-80
2022/09/18 00:23:09;;;;;;;;;;;;;;;10.86;74.18;99879.50;1086035;54;19973;-79
2022/09/18 00:24:10;;;;;;;;;;;;;;;10.84;74.38;99888.69;1085078;54;19950;-80
2022/09/18 00:25:14;;;;;;;;;;;;;;;10.87;73.93;99883.88;1084917;54;19954;-81
2022/09/18 00:26:16;;;;;;;;;;;;;;;10.81;74.59;99887.16;1084616;54;20484;-80
2022/09/18 00:27:20;;;;;;;;;;;;;;;10.78;74.45;99890.13;1084577;46;19969;-79
2022/09/18 00:28:21;;;;;;;;;;;;;;;10.92;74.33;99888.75;1087175;31;20539;-81
2022/09/18 00:29:27;;;;;;;;;;;;;;;10.89;74.15;99889.91;1084828;54;19943;-80
2022/09/18 00:30:28;;;;;;;;;;;;;;;10.87;74.47;99885.69;1084435;54;19947;-80
2022/09/18 00:31:33;;;;;;;;;;;;;;;10.82;74.54;99891.47;1084757;54;20039;-80
2022/09/18 00:32:34;;;;;;;;;;;;;;;10.86;74.47;99894.72;1085720;39;20456;-80
2022/09/18 00:33:38;;;;;;;;;;;;;;;10.87;74.29;99891.03;1084439;54;19947;-80
2022/09/18 00:34:40;;;;;;;;;;;;;;;10.93;74.29;99880.56;1085711;54;19970;-80
2022/09/18 00:35:44;;;;;;;;;;;;;;;10.84;74.01;99892.19;1084902;54;19951;-80
2022/09/18 00:36:46;;;;;;;;;;;;;;;10.86;74.22;99892.03;1085483;54;19946;-81
2022/09/18 00:37:49;;;;;;;;;;;;;;;10.93;73.85;99890.44;1085815;54;20475;-79
2022/09/18 00:38:50;;;;;;;;;;;;;;;11.03;73.28;99895.72;1085593;54;19954;-80
2022/09/18 00:39:54;;;;;;;;;;;;;;;10.99;73.57;99884.47;1086860;54;19947;-80
2022/09/18 00:40:57;;;;;;;;;;;;;;;10.99;73.51;99897.84;1085673;54;19953;-79
2022/09/18 00:42:00;;;;;;;;;;;;;;;11.07;73.12;99891.75;1085244;54;19946;-80
2022/09/18 00:43:15;;;;;;;;;;;;;;;10.95;73.60;99884.94;1087001;46;19958;-81
2022/09/18 00:44:35;;;;;;;;;;;;;;;10.99;73.35;99884.47;1085503;54;19983;-81
2022/09/18 00:45:39;;;;;;;;;;;;;;;10.90;73.87;99888.06;1086422;54;19950;-80
2022/09/18 00:46:42;;;;;;;;;;;;;;;11.01;73.69;99882.50;1085885;54;19990;-80
2022/09/18 00:47:47;;;;;;;;;;;;;;;11.02;73.71;99886.88;1085931;54;20456;-80
2022/09/18 00:48:56;;;;;;;;;;;;;;;10.82;74.04;99879.97;1086428;54;19977;-80
2022/09/18 00:50:03;;;;;;;;;;;;;;;10.84;74.14;99877.97;1086481;54;19947;-80
2022/09/18 00:51:04;;;;;;;;;;;;;;;10.81;74.40;99880.94;1086372;54;19954;-80
2022/09/18 00:52:09;;;;;;;;;;;;;;;10.91;74.22;99885.22;1085992;54;19990;-79
2022/09/18 00:53:10;;;;;;;;;;;;;;;10.93;74.50;99885.09;1086050;54;19969;-81
2022/09/18 00:54:17;;;;;;;;;;;;;;;10.88;74.39;99880.19;1085675;54;19954;-80
2022/09/18 00:55:21;;;;;;;;;;;;;;;10.93;74.43;99888.59;1085871;54;19957;-79
2022/09/18 00:56:25;;;;;;;;;;;;;;;10.86;74.54;99886.69;1085841;54;19946;-80
2022/09/18 00:57:29;;;;;;;;;;;;;;;10.86;74.78;99890.19;1086119;39;20372;-81
2022/09/18 00:58:32;;;;;;;;;;;;;;;10.91;74.62;99887.06;1085839;54;19946;-79
2022/09/18 00:59:36;;;;;;;;;;;;;;;10.88;74.67;99890.03;1085924;54;19958;-79
2022/09/18 01:00:40;;;;;;;;;;;;;;;11.00;74.38;99891.50;1085206;54;19981;-79
2022/09/18 01:01:41;;;;;;;;;;;;;;;11.06;74.08;99885.53;1085521;54;20468;-78
2022/09/18 01:02:47;;;;;;;;;;;;;;;11.02;74.08;99889.53;1085485;54;19957;-79
2022/09/18 01:03:48;;;;;;;;;;;;;;;11.03;74.44;99890.38;1085104;54;19938;-79
2022/09/18 01:04:52;;;;;;;;;;;;;;;10.92;74.46;99884.25;1085251;54;19973;-79
2022/09/18 01:05:59;;;;;;;;;;;;;;;10.92;74.81;99891.44;1085755;54;19953;-79
2022/09/18 01:07:05;;;;;;;;;;;;;;;10.96;74.66;99895.47;1085677;54;19957;-79
2022/09/18 01:08:14;;;;;;;;;;;;;;;11.02;74.69;99884.19;1085329;54;19950;-78
2022/09/18 01:09:23;;;;;;;;;;;;;;;11.06;74.39;99890.91;1086884;39;20816;-79
2022/09/18 01:10:34;;;;;;;;;;;;;;;10.99;73.85;99889.81;1085540;54;19977;-79
2022/09/18 01:11:43;;;;;;;;;;;;;;;10.91;74.33;99881.72;1084992;54;19946;-79
2022/09/18 01:12:50;;;;;;;;;;;;;;;10.84;74.88;99877.97;1085466;54;19962;-79
2022/09/18 01:13:59;;;;;;;;;;;;;;;10.86;74.94;99886.69;1085804;54;19946;-80
2022/09/18 01:15:08;;;;;;;;;;;;;;;10.85;75.11;99893.03;1085185;54;19957;-78
2022/09/18 01:16:17;;;;;;;;;;;;;;;10.83;75.13;99884.31;1085911;54;19946;-81
2022/09/18 01:17:25;;;;;;;;;;;;;;;10.80;75.72;99885.47;1085528;54;19958;-79
2022/09/18 01:18:32;;;;;;;;;;;;;;;10.88;75.38;99890.91;1085464;54;20548;-79
2022/09/18 01:19:41;;;;;;;;;;;;;;;10.84;75.44;99886.81;1085428;54;19939;-78
2022/09/18 01:20:55;;;;;;;;;;;;;;;10.76;75.71;99889.41;1086069;54;19954;-80
2022/09/18 01:22:01;;;;;;;;;;;;;;;10.73;75.96;99885.22;1085559;54;19946;-77
2022/09/18 01:23:15;;;;;;;;;;;;;;;10.72;76.14;99888.06;1085152;54;19946;-80
2022/09/18 01:24:27;;;;;;;;;;;;;;;10.73;76.20;99885.22;1085105;54;20003;-79
2022/09/18 01:25:38;;;;;;;;;;;;;;;10.64;76.33;99887.94;1085666;54;19969;-80
2022/09/18 01:26:45;;;;;;;;;;;;;;;10.71;76.61;99897.88;1085445;54;19958;-79
2022/09/18 01:28:00;;;;;;;;;;;;;;;10.71;76.31;99889.88;1085829;54;19950;-78
2022/09/18 01:29:04;;;;;;;;;;;;;;;10.82;75.81;99896.00;1085810;54;19946;-80
2022/09/18 01:30:09;;;;;;;;;;;;;;;10.84;75.52;99886.81;1085904;54;19947;-79
2022/09/18 01:31:14;;;;;;;;;;;;;;;10.79;76.07;99888.25;1084960;54;19953;-80
2022/09/18 01:32:23;;;;;;;;;;;;;;;10.88;75.61;99892.72;1085273;54;19973;-79
2022/09/18 01:33:27;;;;;;;;;;;;;;;10.89;75.57;99889.06;1085382;54;19958;-78
2022/09/18 01:34:34;;;;;;;;;;;;;;;10.91;75.50;99887.91;1085668;54;19981;-80
2022/09/18 01:35:38;;;;;;;;;;;;;;;10.85;75.61;99895.72;1086174;46;19969;-79
2022/09/18 01:36:45;;;;;;;;;;;;;;;10.84;75.37;99894.03;1085771;54;19939;-78
2022/09/18 01:37:50;;;;;;;;;;;;;;;10.71;76.13;99895.22;1085805;54;19986;-79
2022/09/18 01:38:56;;;;;;;;;;;;;;;10.70;76.12;99900.72;1086703;54;19950;-79
2022/09/18 01:40:02;;;;;;;;;;;;;;;10.67;75.94;99896.50;1086901;39;20348;-80
2022/09/18 01:41:08;;;;;;;;;;;;;;;10.69;75.78;99897.19;1086365;54;19939;-79
2022/09/18 01:42:11;;;;;;;;;;;;;;;10.70;75.60;99895.38;1086076;54;19939;-80
2022/09/18 01:43:20;;;;;;;;;;;;;;;10.71;75.87;99897.88;1086101;54;19946;-79
2022/09/18 01:44:25;;;;;;;;;;;;;;;10.65;76.21;99893.16;1086372;54;19946;-80
2022/09/18 01:45:30;;;;;;;;;;;;;;;10.70;76.05;99887.34;1086162;54;20006;-81
2022/09/18 01:46:33;;;;;;;;;;;;;;;10.62;75.96;99888.09;1085611;54;19954;-79
2022/09/18 01:47:39;;;;;;;;;;;;;;;10.59;76.10;99885.69;1086286;54;19939;-80
2022/09/18 01:48:44;;;;;;;;;;;;;;;10.57;76.40;99890.38;1085685;54;19946;-79
2022/09/18 01:49:49;;;;;;;;;;;;;;;10.58;76.02;99886.72;1086287;39;20412;-80
2022/09/18 01:50:53;;;;;;;;;;;;;;;10.60;76.21;99882.03;1086273;54;19973;-80
2022/09/18 01:51:58;;;;;;;;;;;;;;;10.55;76.11;99885.16;1086043;54;19938;-81
2022/09/18 01:53:02;;;;;;;;;;;;;;;10.60;76.04;99884.72;1086584;54;19950;-79
2022/09/18 01:54:15;;;;;;;;;;;;;;;10.54;76.33;99885.31;1085993;54;19957;-79
2022/09/18 01:55:19;;;;;;;;;;;;;;;10.61;76.08;99889.06;1086210;54;19981;-81
2022/09/18 01:56:35;;;;;;;;;;;;;;;10.53;75.90;99888.97;1086202;54;20066;-79
2022/09/18 01:57:38;;;;;;;;;;;;;;;10.54;76.14;99885.31;1086364;54;19950;-79
2022/09/18 01:58:46;;;;;;;;;;;;;;;10.55;76.23;99881.66;1085823;54;19946;-78
2022/09/18 01:59:49;;;;;;;;;;;;;;;10.60;76.23;99892.72;1085638;54;19946;-79
2022/09/18 02:00:56;;;;;;;;;;;;;;;10.64;75.99;99890.59;1085917;54;19950;-79
2022/09/18 02:01:58;;;;;;;;;;;;;;;10.65;75.75;99887.78;1086381;54;19947;-79
2022/09/18 02:03:04;;;;;;;;;;;;;;;10.66;75.82;99888.63;1086990;31;20349;-80
2022/09/18 02:04:09;;;;;;;;;;;;;;;10.60;75.63;99879.38;1086423;46;19947;-79
2022/09/18 02:05:16;;;;;;;;;;;;;;;10.69;75.71;99883.81;1085960;54;19950;-80
2022/09/18 02:06:20;;;;;;;;;;;;;;;10.82;75.59;99880.78;1085914;54;20042;-80
2022/09/18 02:07:28;;;;;;;;;;;;;;;10.69;75.56;99880.31;1086238;54;19957;-79
2022/09/18 02:08:31;;;;;;;;;;;;;;;10.66;75.79;99880.59;1086031;54;19953;-80
2022/09/18 02:09:34;;;;;;;;;;;;;;;10.79;75.54;99878.44;1086019;54;19958;-81
2022/09/18 02:10:39;;;;;;;;;;;;;;;10.73;75.53;99879.00;1085993;54;19969;-80
2022/09/18 02:11:48;;;;;;;;;;;;;;;10.83;75.17;99879.78;1086433;54;19947;-79
2022/09/18 02:12:50;;;;;;;;;;;;;;;10.82;75.29;99877.28;1086368;54;19962;-79
2022/09/18 02:14:01;;;;;;;;;;;;;;;10.82;75.24;99871.94;1085568;54;19981;-78
2022/09/18 02:15:04;;;;;;;;;;;;;;;10.83;75.36;99873.63;1086123;54;19947;-80
2022/09/18 02:16:12;;;;;;;;;;;;;;;10.73;75.56;99879.00;1086149;47;19957;-80
2022/09/18 02:17:16;;;;;;;;;;;;;;;10.57;75.88;99883.19;1086191;54;19947;-79
2022/09/18 02:18:25;;;;;;;;;;;;;;;10.55;76.37;99877.13;1086490;54;19950;-80
2022/09/18 02:19:28;;;;;;;;;;;;;;;10.60;76.34;99882.91;1086214;54;19946;-79
2022/09/18 02:20:37;;;;;;;;;;;;;;;10.57;76.16;99879.69;1086342;54;19969;-79
2022/09/18 02:21:41;;;;;;;;;;;;;;;10.61;76.14;99875.72;1085864;54;19942;-79
2022/09/18 02:22:47;;;;;;;;;;;;;;;10.63;76.29;99879.09;1085642;54;19962;-80
2022/09/18 02:23:49;;;;;;;;;;;;;;;10.52;76.35;99876.59;1085033;54;19946;-79
2022/09/18 02:24:55;;;;;;;;;;;;;;;10.50;76.75;99874.09;1085533;54;19947;-80
2022/09/18 02:25:58;;;;;;;;;;;;;;;10.47;76.53;99869.03;1085493;54;19958;-79
2022/09/18 02:27:03;;;;;;;;;;;;;;;10.52;76.54;99874.78;1085656;54;19962;-80
2022/09/18 02:28:06;;;;;;;;;;;;;;;10.59;76.49;99889.22;1085470;54;19947;-80
2022/09/18 02:29:13;;;;;;;;;;;;;;;10.58;76.13;99881.38;1086186;54;19958;-79
2022/09/18 02:30:15;;;;;;;;;;;;;;;10.54;76.54;99893.34;1085569;54;19998;-80
2022/09/18 02:31:21;;;;;;;;;;;;;;;10.64;76.37;99886.13;1085723;54;19968;-79
2022/09/18 02:32:22;;;;;;;;;;;;;;;10.64;76.18;99888.78;1085839;54;19958;-79
2022/09/18 02:33:27;;;;;;;;;;;;;;;10.69;75.85;99894.50;1086134;54;19953;-79
2022/09/18 02:34:29;;;;;;;;;;;;;;;10.70;75.55;99892.69;1085857;54;20016;-80
2022/09/18 02:35:39;;;;;;;;;;;;;;;10.72;75.72;99896.06;1085269;54;20015;-80
2022/09/18 02:36:50;;;;;;;;;;;;;;;10.67;75.48;99888.50;1085668;54;19950;-79
2022/09/18 02:37:57;;;;;;;;;;;;;;;10.80;75.40;99882.78;1085395;54;19951;-79
2022/09/18 02:39:06;;;;;;;;;;;;;;;10.70;75.10;99890.84;1086531;54;19950;-80
2022/09/18 02:40:14;;;;;;;;;;;;;;;10.61;75.66;99887.25;1085044;54;19947;-78
2022/09/18 02:41:23;;;;;;;;;;;;;;;10.71;75.47;99881.84;1085714;39;20575;-80
2022/09/18 02:42:34;;;;;;;;;;;;;;;10.85;75.14;99882.34;1085304;54;19946;-79
2022/09/18 02:43:39;;;;;;;;;;;;;;;10.88;74.87;99879.34;1085333;54;20457;-81
2022/09/18 02:44:52;;;;;;;;;;;;;;;10.77;75.23;99875.88;1085673;54;19949;-80
2022/09/18 02:45:57;;;;;;;;;;;;;;;10.72;75.64;99878.19;1085838;54;19942;-80
2022/09/18 02:47:06;;;;;;;;;;;;;;;10.68;75.59;99871.44;1084620;54;19947;-79
2022/09/18 02:48:13;;;;;;;;;;;;;;;10.75;75.68;99877.03;1084720;54;19951;-77
2022/09/18 02:49:24;;;;;;;;;;;;;;;10.69;75.55;99875.81;1084185;54;19950;-81
2022/09/18 02:50:29;;;;;;;;;;;;;;;10.71;75.79;99873.00;1084782;54;19950;-79
2022/09/18 02:51:37;;;;;;;;;;;;;;;10.58;75.72;99876.84;1084842;39;20661;-79
2022/09/18 02:52:41;;;;;;;;;;;;;;;10.64;76.12;99872.75;1086136;39;20329;-78
2022/09/18 02:53:47;;;;;;;;;;;;;;;10.69;75.70;99867.78;1084803;54;19947;-79
2022/09/18 02:54:51;;;;;;;;;;;;;;;10.68;75.68;99859.91;1086112;39;20368;-80
2022/09/18 02:55:59;;;;;;;;;;;;;;;10.79;75.72;99866.88;1085234;54;19947;-80
2022/09/18 02:57:02;;;;;;;;;;;;;;;10.76;75.65;99868.88;1085034;54;19966;-80
2022/09/18 02:58:08;;;;;;;;;;;;;;;10.75;75.56;99859.19;1084961;54;19950;-79
2022/09/18 02:59:11;;;;;;;;;;;;;;;10.82;75.57;99861.25;1084927;54;19974;-80
2022/09/18 03:00:18;;;;;;;;;;;;;;;10.73;75.84;99868.31;1085189;54;20605;-80
2022/09/18 03:01:20;;;;;;;;;;;;;;;10.67;76.03;99867.13;1085039;46;19947;-79
2022/09/18 03:02:24;;;;;;;;;;;;;;;10.67;76.38;99864.44;1084256;54;19973;-82
2022/09/18 03:03:26;;;;;;;;;;;;;;;10.73;76.20;99866.50;1084814;54;19969;-80
2022/09/18 03:04:31;;;;;;;;;;;;;;;10.79;75.91;99872.22;1084387;54;19946;-80
2022/09/18 03:05:32;;;;;;;;;;;;;;;10.76;76.05;99862.69;1084991;54;20010;-80
2022/09/18 03:06:36;;;;;;;;;;;;;;;10.71;76.26;99862.31;1087217;46;20518;-78
2022/09/18 03:07:37;;;;;;;;;;;;;;;10.64;76.36;99867.41;1084477;54;19993;-80
2022/09/18 03:08:41;;;;;;;;;;;;;;;10.64;76.40;99863.88;1084981;39;20223;-78
2022/09/18 03:09:43;;;;;;;;;;;;;;;10.79;76.28;99865.06;1085398;39;20427;-80
2022/09/18 03:10:47;;;;;;;;;;;;;;;10.74;76.46;99860.16;1084643;54;19969;-80
2022/09/18 03:11:49;;;;;;;;;;;;;;;10.73;76.66;99861.16;1083648;54;19951;-78
2022/09/18 03:12:52;;;;;;;;;;;;;;;10.74;76.63;99851.28;1084337;54;19969;-79
2022/09/18 03:13:53;;;;;;;;;;;;;;;10.56;76.75;99860.13;1085069;39;20451;-80
2022/09/18 03:14:57;;;;;;;;;;;;;;;10.63;76.51;99857.69;1085032;54;19996;-79
2022/09/18 03:16:01;;;;;;;;;;;;;;;10.73;76.26;99853.13;1085482;39;20780;-79
2022/09/18 03:17:07;;;;;;;;;;;;;;;10.73;75.81;99853.13;1085161;54;19998;-80
2022/09/18 03:18:08;;;;;;;;;;;;;;;10.58;76.85;99849.28;1085443;54;19974;-80
2022/09/18 03:19:13;;;;;;;;;;;;;;;10.57;76.79;99852.97;1085644;54;19973;-82
2022/09/18 03:20:14;;;;;;;;;;;;;;;10.57;76.92;99856.47;1085578;54;19950;-80
2022/09/18 03:21:18;;;;;;;;;;;;;;;10.60;76.89;99848.16;1085127;54;19970;-80
2022/09/18 03:22:19;;;;;;;;;;;;;;;10.66;76.52;99853.88;1085036;54;19977;-80
2022/09/18 03:23:23;;;;;;;;;;;;;;;10.63;76.59;99862.22;1084984;54;19950;-81
2022/09/18 03:24:24;;;;;;;;;;;;;;;10.66;76.66;99851.19;1084591;54;20465;-78
2022/09/18 03:25:28;;;;;;;;;;;;;;;10.51;76.99;99859.75;1084875;39;20491;-80
2022/09/18 03:26:29;;;;;;;;;;;;;;;10.54;76.95;99863.94;1084198;54;19957;-79
2022/09/18 03:27:32;;;;;;;;;;;;;;;10.43;77.39;99856.97;1084005;54;19950;-79
2022/09/18 03:28:34;;;;;;;;;;;;;;;10.44;77.61;99866.66;1085869;39;20326;-80
2022/09/18 03:29:38;;;;;;;;;;;;;;;10.51;77.13;99862.41;1084654;54;19951;-79
2022/09/18 03:30:40;;;;;;;;;;;;;;;10.48;77.23;99857.34;1084932;54;19981;-79
2022/09/18 03:31:46;;;;;;;;;;;;;;;10.47;77.60;99870.88;1084482;54;19954;-79
2022/09/18 03:32:47;;;;;;;;;;;;;;;10.50;77.55;99865.22;1084543;54;19946;-79
2022/09/18 03:33:51;;;;;;;;;;;;;;;10.51;77.51;99864.22;1084797;54;19966;-79
2022/09/18 03:34:52;;;;;;;;;;;;;;;10.57;77.29;99856.47;1084896;54;19962;-80
2022/09/18 03:35:56;;;;;;;;;;;;;;;10.63;76.70;99863.03;1084911;54;19946;-80
2022/09/18 03:37:00;;;;;;;;;;;;;;;10.55;76.91;99865.63;1085623;39;20222;-80
2022/09/18 03:38:01;;;;;;;;;;;;;;;10.55;77.33;99866.44;1084674;54;19946;-80
2022/09/18 03:39:06;;;;;;;;;;;;;;;10.66;76.83;99864.56;1085456;39;20463;-80
2022/09/18 03:40:08;;;;;;;;;;;;;;;10.61;76.84;99859.66;1085992;54;19943;-80
2022/09/18 03:41:12;;;;;;;;;;;;;;;10.61;77.18;99867.69;1084574;54;19958;-81
2022/09/18 03:42:13;;;;;;;;;;;;;;;10.64;77.42;99863.88;1085016;54;19935;-80
2022/09/18 03:43:17;;;;;;;;;;;;;;;10.68;77.37;99865.25;1084292;54;19958;-80
2022/09/18 03:44:18;;;;;;;;;;;;;;;10.56;77.55;99870.81;1084222;54;19954;-80
2022/09/18 03:45:22;;;;;;;;;;;;;;;10.50;77.77;99870.56;1084540;54;19989;-80
2022/09/18 03:46:23;;;;;;;;;;;;;;;10.65;77.42;99874.44;1084243;54;19939;-79
2022/09/18 03:47:29;;;;;;;;;;;;;;;10.66;77.61;99862.75;1084474;54;19951;-80
2022/09/18 03:48:31;;;;;;;;;;;;;;;10.56;77.52;99872.66;1085341;54;19946;-80
2022/09/18 03:49:34;;;;;;;;;;;;;;;10.53;77.95;99867.59;1086298;54;19989;-79
2022/09/18 03:50:36;;;;;;;;;;;;;;;10.45;78.23;99861.16;1084329;54;19946;-79
2022/09/18 03:51:39;;;;;;;;;;;;;;;10.57;78.00;99869.81;1084024;54;19957;-78
2022/09/18 03:52:40;;;;;;;;;;;;;;;10.54;78.21;99869.28;1085321;54;19938;-79
2022/09/18 03:53:44;;;;;;;;;;;;;;;10.49;78.43;99871.53;1084449;54;19950;-80
2022/09/18 03:54:45;;;;;;;;;;;;;;;10.58;78.63;99870.69;1084307;54;19958;-77
2022/09/18 03:55:51;;;;;;;;;;;;;;;10.60;78.15;99868.69;1084269;54;19953;-77
2022/09/18 03:56:52;;;;;;;;;;;;;;;10.61;78.43;99867.69;1084159;54;19978;-79
2022/09/18 03:57:56;;;;;;;;;;;;;;;10.61;78.51;99867.69;1084512;39;20309;-78
2022/09/18 03:58:57;;;;;;;;;;;;;;;10.64;78.14;99859.38;1084132;54;19973;-79
2022/09/18 04:00:01;;;;;;;;;;;;;;;10.51;78.58;99866.91;1085715;39;20664;-80
2022/09/18 04:01:05;;;;;;;;;;;;;;;10.59;78.74;99872.34;1084581;54;19951;-79
2022/09/18 04:02:09;;;;;;;;;;;;;;;10.66;78.40;99861.91;1086405;39;20569;-80
2022/09/18 04:03:13;;;;;;;;;;;;;;;10.68;78.08;99865.25;1085188;54;20035;-80
2022/09/18 04:04:16;;;;;;;;;;;;;;;10.50;78.33;99862.53;1085058;54;19976;-80
2022/09/18 04:05:17;;;;;;;;;;;;;;;10.50;78.40;99865.22;1085506;54;19954;-80
2022/09/18 04:06:21;;;;;;;;;;;;;;;10.46;78.59;99859.31;1084648;54;20927;-80
2022/09/18 04:07:22;;;;;;;;;;;;;;;10.45;78.96;99866.50;1085155;54;19946;-79
2022/09/18 04:08:27;;;;;;;;;;;;;;;10.41;78.84;99865.13;1085088;54;20002;-79
2022/09/18 04:09:28;;;;;;;;;;;;;;;10.41;78.90;99870.47;1085226;54;19962;-81
2022/09/18 04:10:32;;;;;;;;;;;;;;;10.38;79.00;99868.09;1084392;54;19958;-80
2022/09/18 04:11:34;;;;;;;;;;;;;;;10.39;79.01;99868.94;1085266;39;20421;-80
2022/09/18 04:12:38;;;;;;;;;;;;;;;10.32;79.13;99865.97;1084847;54;19947;-80
2022/09/18 04:13:39;;;;;;;;;;;;;;;10.38;79.47;99860.09;1085386;54;19947;-80
2022/09/18 04:14:43;;;;;;;;;;;;;;;10.42;78.88;99866.81;1086523;46;19946;-79
2022/09/18 04:15:46;;;;;;;;;;;;;;;10.44;78.94;99870.19;1085624;39;22319;-80
2022/09/18 04:16:50;;;;;;;;;;;;;;;10.44;79.23;99872.00;1085099;54;19951;-79
2022/09/18 04:17:51;;;;;;;;;;;;;;;10.52;79.03;99873.94;1084800;54;19946;-80
2022/09/18 04:18:57;;;;;;;;;;;;;;;10.41;78.80;99870.47;1084654;54;19950;-79
2022/09/18 04:20:00;;;;;;;;;;;;;;;10.36;78.81;99869.19;1084797;54;19947;-80
2022/09/18 04:21:06;;;;;;;;;;;;;;;10.40;79.05;99868.78;1085268;54;19953;-80
2022/09/18 04:22:08;;;;;;;;;;;;;;;10.37;79.16;99871.75;1084768;54;19957;-79
2022/09/18 04:23:13;;;;;;;;;;;;;;;10.44;79.49;99864.81;1085151;54;19951;-80
2022/09/18 04:24:15;;;;;;;;;;;;;;;10.41;79.25;99874.97;1085197;54;19950;-78
2022/09/18 04:25:20;;;;;;;;;;;;;;;10.47;79.32;99878.88;1084615;54;20033;-81
2022/09/18 04:26:21;;;;;;;;;;;;;;;10.44;79.18;99869.31;1084903;54;19958;-79
2022/09/18 04:27:26;;;;;;;;;;;;;;;10.44;79.08;99861.28;1084988;54;20065;-80
2022/09/18 04:28:27;;;;;;;;;;;;;;;10.35;79.19;99863.00;1085134;39;20970;-80
2022/09/18 04:29:31;;;;;;;;;;;;;;;10.32;79.34;99871.31;1085707;54;19958;-79
2022/09/18 04:30:32;;;;;;;;;;;;;;;10.35;79.23;99873.69;1089635;31;20451;-80
2022/09/18 04:31:36;;;;;;;;;;;;;;;10.42;79.08;99866.81;1085056;54;19947;-78
2022/09/18 04:32:37;;;;;;;;;;;;;;;10.37;78.99;99871.75;1086047;39;20467;-80
2022/09/18 04:33:41;;;;;;;;;;;;;;;10.39;78.95;99871.59;1085158;54;19958;-79
2022/09/18 04:34:45;;;;;;;;;;;;;;;10.43;78.79;99871.16;1085463;54;19958;-79
2022/09/18 04:35:48;;;;;;;;;;;;;;;10.35;78.95;99868.34;1089256;39;20251;-78
2022/09/18 04:36:49;;;;;;;;;;;;;;;10.36;78.85;99867.38;1085332;54;19953;-80
2022/09/18 04:37:54;;;;;;;;;;;;;;;10.43;79.33;99870.34;1085721;54;19939;-80
2022/09/18 04:38:56;;;;;;;;;;;;;;;10.46;78.94;99867.34;1085429;39;20685;-79
2022/09/18 04:40:00;;;;;;;;;;;;;;;10.40;79.13;99879.47;1084921;54;19947;-79
2022/09/18 04:41:01;;;;;;;;;;;;;;;10.43;78.90;99871.16;1085011;54;19950;-80
2022/09/18 04:42:05;;;;;;;;;;;;;;;10.34;79.21;99864.00;1084674;54;19980;-78
2022/09/18 04:43:09;;;;;;;;;;;;;;;10.42;78.90;99868.66;1085654;39;20357;-80
2022/09/18 04:44:12;;;;;;;;;;;;;;;10.36;78.96;99866.50;1085793;54;20803;-80
2022/09/18 04:45:14;;;;;;;;;;;;;;;10.39;78.99;99863.59;1087162;54;19957;-81
2022/09/18 04:46:17;;;;;;;;;;;;;;;10.41;78.56;99867.78;1086279;54;19971;-79
2022/09/18 04:47:18;;;;;;;;;;;;;;;10.42;78.62;99869.47;1085914;54;19958;-79
2022/09/18 04:48:24;;;;;;;;;;;;;;;10.51;78.66;99869.56;1085576;54;19958;-79
2022/09/18 04:49:25;;;;;;;;;;;;;;;10.51;78.29;99873.09;1086184;46;19970;-79
2022/09/18 04:50:32;;;;;;;;;;;;;;;10.50;78.31;99870.56;1085761;54;20444;-79
2022/09/18 04:51:33;;;;;;;;;;;;;;;10.53;78.40;99876.44;1085473;54;19958;-79
2022/09/18 04:52:37;;;;;;;;;;;;;;;10.56;78.54;99873.47;1086207;54;19953;-79
2022/09/18 04:53:39;;;;;;;;;;;;;;;10.55;78.64;99876.31;1086195;39;20435;-79
2022/09/18 04:54:42;;;;;;;;;;;;;;;10.55;78.59;99876.31;1084866;54;20847;-80
2022/09/18 04:55:44;;;;;;;;;;;;;;;10.61;78.25;99881.06;1084424;54;19946;-78
2022/09/18 04:56:48;;;;;;;;;;;;;;;10.41;78.32;99874.97;1084648;54;19953;-79
2022/09/18 04:57:49;;;;;;;;;;;;;;;10.52;78.50;99873.94;1085424;54;19966;-78
2022/09/18 04:58:53;;;;;;;;;;;;;;;10.48;78.51;99875.22;1087076;39;20862;-78
2022/09/18 04:59:54;;;;;;;;;;;;;;;10.42;78.80;99877.50;1084748;54;19947;-81
2022/09/18 05:00:58;;;;;;;;;;;;;;;10.43;78.91;99884.53;1085353;54;19950;-78
2022/09/18 05:02:00;;;;;;;;;;;;;;;10.42;78.66;99882.84;1085505;54;20004;-79
2022/09/18 05:03:03;;;;;;;;;;;;;;;10.41;78.86;99881.16;1084880;54;19998;-79
2022/09/18 05:04:05;;;;;;;;;;;;;;;10.43;78.87;99879.19;1084642;54;19946;-80
2022/09/18 05:05:10;;;;;;;;;;;;;;;10.47;78.70;99879.72;1084552;54;20441;-79
2022/09/18 05:06:13;;;;;;;;;;;;;;;10.49;78.57;99877.75;1084940;54;20484;-78
2022/09/18 05:07:17;;;;;;;;;;;;;;;10.44;78.70;99886.22;1084642;54;19962;-79
2022/09/18 05:08:18;;;;;;;;;;;;;;;10.49;78.64;99887.56;1086785;39;20381;-79
2022/09/18 05:09:22;;;;;;;;;;;;;;;10.44;78.76;99882.69;1084680;54;20488;-79
2022/09/18 05:10:23;;;;;;;;;;;;;;;10.47;78.31;99884.25;1085312;54;19973;-79
2022/09/18 05:11:27;;;;;;;;;;;;;;;10.50;78.75;99883.91;1084613;54;19946;-79
2022/09/18 05:12:28;;;;;;;;;;;;;;;10.49;78.23;99888.44;1085183;39;20361;-79
2022/09/18 05:13:32;;;;;;;;;;;;;;;10.44;78.58;99886.22;1085108;54;20002;-79
2022/09/18 05:14:33;;;;;;;;;;;;;;;10.49;78.37;99882.22;1084917;54;19947;-80
2022/09/18 05:15:37;;;;;;;;;;;;;;;10.55;78.40;99882.50;1084901;54;19954;-79
2022/09/18 05:16:38;;;;;;;;;;;;;;;10.50;78.75;99883.91;1084601;54;19946;-79
2022/09/18 05:17:43;;;;;;;;;;;;;;;10.49;78.28;99884.91;1084988;54;19981;-80
2022/09/18 05:18:44;;;;;;;;;;;;;;;10.41;78.67;99888.34;1085470;39;20463;-80
2022/09/18 05:19:47;;;;;;;;;;;;;;;10.34;78.72;99890.72;1085169;54;20006;-80
2022/09/18 05:20:49;;;;;;;;;;;;;;;10.37;79.23;99879.78;1085469;54;19951;-79
2022/09/18 05:21:55;;;;;;;;;;;;;;;10.43;78.83;99889.03;1084775;54;20010;-80
2022/09/18 05:22:56;;;;;;;;;;;;;;;10.50;79.03;99884.78;1084487;54;19946;-79
2022/09/18 05:24:00;;;;;;;;;;;;;;;10.41;79.08;99886.50;1084739;54;21237;-78
2022/09/18 05:25:01;;;;;;;;;;;;;;;10.47;79.24;99890.41;1084642;54;19972;-80
2022/09/18 05:26:06;;;;;;;;;;;;;;;10.37;79.54;99893.13;1084594;54;19954;-81
2022/09/18 05:27:07;;;;;;;;;;;;;;;10.39;79.38;99893.81;1085316;54;19946;-80
2022/09/18 05:28:13;;;;;;;;;;;;;;;10.44;79.69;99893.38;1085028;54;19950;-80
2022/09/18 05:29:14;;;;;;;;;;;;;;;10.46;79.44;99896.75;1085734;31;20459;-80
2022/09/18 05:30:18;;;;;;;;;;;;;;;10.34;80.02;99901.41;1084487;54;19946;-78
2022/09/18 05:31:19;;;;;;;;;;;;;;;10.35;79.97;99897.75;1085692;39;20452;-80
2022/09/18 05:32:25;;;;;;;;;;;;;;;10.32;79.98;99902.56;1084495;54;19950;-78
2022/09/18 05:33:26;;;;;;;;;;;;;;;10.35;80.23;99897.75;1084914;54;19946;-79
2022/09/18 05:34:30;;;;;;;;;;;;;;;10.38;80.12;99896.63;1084487;54;19946;-79
2022/09/18 05:35:32;;;;;;;;;;;;;;;10.51;79.63;99893.63;1084440;54;19950;-79